createdAt,value
2018-06-25T00:00:25.775Z,12.98
2018-06-25T00:01:25.763Z,13.03
2018-06-25T00:02:25.764Z,13.03
2018-06-25T00:03:25.766Z,12.99
2018-06-25T00:04:25.731Z,12.96
2018-06-25T00:05:25.723Z,12.98
2018-06-25T00:06:25.710Z,12.96
2018-06-25T00:07:25.717Z,12.99
2018-06-25T00:08:25.686Z,12.96
2018-06-25T00:09:25.676Z,12.96
2018-06-25T00:10:25.665Z,12.94
2018-06-25T00:11:25.656Z,12.95
2018-06-25T00:12:25.656Z,12.95
2018-06-25T00:13:25.630Z,12.96
2018-06-25T00:14:25.649Z,12.99
2018-06-25T00:15:25.610Z,13.03
2018-06-25T00:16:25.599Z,13.01
2018-06-25T00:17:25.623Z,12.95
2018-06-25T00:18:25.589Z,12.95
2018-06-25T00:19:25.569Z,12.92
2018-06-25T00:20:25.556Z,12.99
2018-06-25T00:21:25.542Z,12.99
2018-06-25T00:22:25.567Z,12.98
2018-06-25T00:23:25.521Z,13.01
2018-06-25T00:24:25.518Z,12.95
2018-06-25T00:25:25.522Z,12.95
2018-06-25T00:26:25.488Z,12.89
2018-06-25T00:27:25.514Z,12.95
2018-06-25T00:28:25.465Z,12.95
2018-06-25T00:29:25.456Z,12.95
2018-06-25T00:30:25.445Z,12.95
2018-06-25T00:31:25.438Z,12.96
2018-06-25T00:32:25.432Z,12.95
2018-06-25T00:33:25.422Z,12.88
2018-06-25T00:34:25.400Z,12.85
2018-06-25T00:35:25.389Z,12.85
2018-06-25T00:36:25.381Z,12.84
2018-06-25T00:37:25.395Z,12.81
2018-06-25T00:38:25.355Z,12.71
2018-06-25T00:39:25.346Z,12.73
2018-06-25T00:40:25.334Z,12.81
2018-06-25T00:41:25.321Z,12.85
2018-06-25T00:42:25.324Z,12.80
2018-06-25T00:43:25.300Z,12.79
2018-06-25T00:44:25.288Z,12.77
2018-06-25T00:45:25.277Z,12.74
2018-06-25T00:46:25.267Z,12.85
2018-06-25T00:47:25.267Z,12.79
2018-06-25T00:48:25.244Z,12.81
2018-06-25T00:49:25.235Z,12.85
2018-06-25T00:50:25.222Z,12.79
2018-06-25T00:51:25.212Z,12.81
2018-06-25T00:52:25.213Z,12.84
2018-06-25T00:53:25.189Z,12.87
2018-06-25T00:54:25.197Z,12.92
2018-06-25T00:55:25.172Z,12.84
2018-06-25T00:56:25.156Z,12.77
2018-06-25T00:57:25.179Z,12.84
2018-06-25T00:58:25.134Z,12.74
2018-06-25T00:59:25.127Z,12.71
2018-06-25T01:00:25.111Z,12.84
2018-06-25T01:01:25.100Z,12.85
2018-06-25T01:02:25.107Z,12.85
2018-06-25T01:03:25.081Z,12.84
2018-06-25T01:04:25.067Z,12.77
2018-06-25T01:05:25.055Z,12.84
2018-06-25T01:06:25.047Z,12.84
2018-06-25T01:07:25.046Z,12.87
2018-06-25T01:08:25.025Z,12.79
2018-06-25T01:09:25.013Z,12.88
2018-06-25T01:10:25.000Z,12.79
2018-06-25T01:11:24.990Z,12.94
2018-06-25T01:12:24.989Z,12.91
2018-06-25T01:13:24.969Z,12.92
2018-06-25T01:14:24.961Z,12.92
2018-06-25T01:15:24.946Z,12.88
2018-06-25T01:16:24.937Z,12.91
2018-06-25T01:17:24.934Z,12.91
2018-06-25T01:18:24.911Z,12.89
2018-06-25T01:19:24.901Z,12.92
2018-06-25T01:20:24.893Z,12.88
2018-06-25T01:21:24.879Z,12.80
2018-06-25T01:22:24.884Z,12.81
2018-06-25T01:23:24.856Z,12.80
2018-06-25T01:24:24.852Z,12.80
2018-06-25T01:25:24.835Z,12.77
2018-06-25T01:26:24.824Z,12.87
2018-06-25T01:27:24.816Z,12.81
2018-06-25T01:28:24.812Z,12.87
2018-06-25T01:29:24.792Z,12.88
2018-06-25T01:30:24.780Z,12.85
2018-06-25T01:31:24.792Z,12.85
2018-06-25T01:32:24.759Z,12.87
2018-06-25T01:33:24.782Z,12.81
2018-06-25T01:34:24.735Z,12.79
2018-06-25T01:35:24.726Z,12.85
2018-06-25T01:36:24.715Z,12.79
2018-06-25T01:37:24.701Z,12.79
2018-06-25T01:38:24.701Z,12.91
2018-06-25T01:39:24.685Z,12.85
2018-06-25T01:40:24.672Z,12.81
2018-06-25T01:41:24.659Z,12.87
2018-06-25T01:42:24.647Z,12.88
2018-06-25T01:43:24.647Z,12.77
2018-06-25T01:44:24.625Z,12.79
2018-06-25T01:45:24.618Z,12.80
2018-06-25T01:46:24.604Z,12.84
2018-06-25T01:47:24.592Z,12.81
2018-06-25T01:48:24.614Z,12.88
2018-06-25T01:49:24.570Z,12.79
2018-06-25T01:50:24.559Z,12.81
2018-06-25T01:51:24.552Z,12.76
2018-06-25T01:52:24.536Z,12.84
2018-06-25T01:53:24.536Z,12.84
2018-06-25T01:54:24.546Z,12.81
2018-06-25T01:55:24.503Z,12.79
2018-06-25T01:56:24.492Z,12.81
2018-06-25T01:57:24.491Z,12.81
2018-06-25T01:58:24.482Z,12.81
2018-06-25T01:59:24.458Z,12.81
2018-06-25T02:00:24.449Z,12.74
2018-06-25T02:01:24.440Z,12.89
2018-06-25T02:02:24.427Z,12.88
2018-06-25T02:03:24.430Z,12.77
2018-06-25T02:04:24.405Z,12.87
2018-06-25T02:05:24.394Z,12.87
2018-06-25T02:06:24.386Z,12.94
2018-06-25T02:07:24.371Z,12.95
2018-06-25T02:08:24.371Z,12.88
2018-06-25T02:09:24.352Z,12.94
2018-06-25T02:10:24.342Z,12.89
2018-06-25T02:11:24.326Z,12.88
2018-06-25T02:12:24.331Z,12.81
2018-06-25T02:13:24.317Z,12.87
2018-06-25T02:14:24.294Z,12.88
2018-06-25T02:15:24.284Z,12.81
2018-06-25T02:16:24.274Z,12.85
2018-06-25T02:17:24.260Z,12.84
2018-06-25T02:18:24.258Z,12.92
2018-06-25T02:19:24.238Z,12.91
2018-06-25T02:20:24.226Z,12.95
2018-06-25T02:21:24.220Z,12.89
2018-06-25T02:22:24.207Z,12.81
2018-06-25T02:23:24.207Z,12.79
2018-06-25T02:24:24.182Z,12.77
2018-06-25T02:25:24.172Z,12.88
2018-06-25T02:26:24.162Z,12.88
2018-06-25T02:27:24.150Z,12.85
2018-06-25T02:28:24.149Z,12.81
2018-06-25T02:29:24.131Z,12.92
2018-06-25T02:30:24.118Z,12.84
2018-06-25T02:31:24.109Z,12.91
2018-06-25T02:32:24.097Z,12.92
2018-06-25T02:33:24.094Z,12.79
2018-06-25T02:34:24.074Z,12.88
2018-06-25T02:35:24.074Z,12.95
2018-06-25T02:36:24.052Z,12.88
2018-06-25T02:37:24.068Z,12.92
2018-06-25T02:38:24.039Z,12.95
2018-06-25T02:39:24.017Z,12.87
2018-06-25T02:40:24.017Z,12.84
2018-06-25T02:41:23.995Z,12.95
2018-06-25T02:42:24.082Z,12.87
2018-06-25T02:43:23.985Z,12.85
2018-06-25T02:44:23.962Z,12.92
2018-06-25T02:45:23.951Z,12.87
2018-06-25T02:46:23.940Z,12.94
2018-06-25T02:47:23.936Z,12.81
2018-06-25T02:48:23.945Z,12.89
2018-06-25T02:49:23.911Z,12.84
2018-06-25T02:50:23.897Z,12.79
2018-06-25T02:51:23.884Z,12.81
2018-06-25T02:52:23.873Z,12.85
2018-06-25T02:53:23.891Z,12.89
2018-06-25T02:54:23.852Z,12.77
2018-06-25T02:55:23.844Z,12.77
2018-06-25T02:56:23.830Z,12.84
2018-06-25T02:57:23.817Z,12.79
2018-06-25T02:58:23.819Z,12.80
2018-06-25T02:59:23.800Z,12.79
2018-06-25T03:00:23.787Z,12.79
2018-06-25T03:01:23.780Z,12.74
2018-06-25T03:02:23.764Z,12.79
2018-06-25T03:03:23.763Z,12.71
2018-06-25T03:04:23.746Z,12.76
2018-06-25T03:05:23.730Z,12.77
2018-06-25T03:06:23.718Z,12.71
2018-06-25T03:07:23.708Z,12.80
2018-06-25T03:08:23.712Z,12.76
2018-06-25T03:09:23.685Z,12.76
2018-06-25T03:10:23.677Z,12.80
2018-06-25T03:11:23.705Z,12.81
2018-06-25T03:12:23.652Z,12.76
2018-06-25T03:13:23.655Z,12.76
2018-06-25T03:14:23.630Z,12.66
2018-06-25T03:15:23.619Z,12.62
2018-06-25T03:16:23.608Z,12.54
2018-06-25T03:17:23.597Z,12.52
2018-06-25T03:18:23.612Z,12.52
2018-06-25T03:19:23.574Z,12.44
2018-06-25T03:20:23.571Z,12.55
2018-06-25T03:21:23.553Z,12.51
2018-06-25T03:22:23.543Z,12.63
2018-06-25T03:23:23.546Z,12.54
2018-06-25T03:24:23.519Z,12.37
2018-06-25T03:25:23.508Z,12.48
2018-06-25T03:26:23.500Z,12.51
2018-06-25T03:27:23.490Z,12.58
2018-06-25T03:28:23.491Z,12.46
2018-06-25T03:29:23.466Z,12.44
2018-06-25T03:30:23.470Z,12.46
2018-06-25T03:31:23.444Z,12.54
2018-06-25T03:32:23.432Z,12.43
2018-06-25T03:33:23.420Z,12.44
2018-06-25T03:34:23.418Z,12.58
2018-06-25T03:35:23.405Z,12.44
2018-06-25T03:36:23.387Z,12.51
2018-06-25T03:37:23.376Z,12.55
2018-06-25T03:38:23.367Z,12.48
2018-06-25T03:39:23.365Z,12.54
2018-06-25T03:40:23.342Z,12.44
2018-06-25T03:41:23.332Z,12.51
2018-06-25T03:42:23.320Z,12.46
2018-06-25T03:43:23.460Z,12.44
2018-06-25T03:44:23.324Z,12.44
2018-06-25T03:45:23.288Z,12.52
2018-06-25T03:46:23.275Z,12.48
2018-06-25T03:47:23.265Z,12.51
2018-06-25T03:48:23.253Z,12.55
2018-06-25T03:49:23.254Z,12.56
2018-06-25T03:50:23.234Z,12.54
2018-06-25T03:51:23.220Z,12.49
2018-06-25T03:52:23.210Z,12.44
2018-06-25T03:53:23.197Z,12.46
2018-06-25T03:54:23.198Z,12.48
2018-06-25T03:55:23.176Z,12.43
2018-06-25T03:56:23.167Z,12.49
2018-06-25T03:57:23.166Z,12.44
2018-06-25T03:58:23.143Z,12.48
2018-06-25T03:59:23.162Z,12.43
2018-06-25T04:00:23.383Z,12.44
2018-06-25T04:01:23.110Z,12.58
2018-06-25T04:02:23.101Z,12.46
2018-06-25T04:03:23.090Z,12.46
2018-06-25T04:04:23.090Z,12.58
2018-06-25T04:05:23.067Z,12.54
2018-06-25T04:06:23.057Z,12.44
2018-06-25T04:07:23.044Z,12.46
2018-06-25T04:08:23.035Z,12.48
2018-06-25T04:09:23.037Z,12.49
2018-06-25T04:10:23.014Z,12.48
2018-06-25T04:11:23.001Z,12.56
2018-06-25T04:12:22.988Z,12.44
2018-06-25T04:13:22.980Z,12.46
2018-06-25T04:14:22.976Z,12.54
2018-06-25T04:15:22.957Z,12.51
2018-06-25T04:16:22.944Z,12.44
2018-06-25T04:17:22.933Z,12.55
2018-06-25T04:18:22.950Z,12.55
2018-06-25T04:19:22.921Z,12.52
2018-06-25T04:20:22.904Z,12.63
2018-06-25T04:21:22.888Z,12.52
2018-06-25T04:22:22.878Z,12.59
2018-06-25T04:23:22.868Z,12.55
2018-06-25T04:24:22.876Z,12.52
2018-06-25T04:25:22.846Z,12.62
2018-06-25T04:26:22.833Z,12.59
2018-06-25T04:27:22.820Z,12.55
2018-06-25T04:28:22.811Z,12.58
2018-06-25T04:29:22.810Z,12.62
2018-06-25T04:30:22.797Z,12.70
2018-06-25T04:31:22.781Z,12.59
2018-06-25T04:32:22.769Z,12.69
2018-06-25T04:33:22.756Z,12.70
2018-06-25T04:34:22.755Z,12.69
2018-06-25T04:35:22.733Z,12.70
2018-06-25T04:36:22.725Z,12.62
2018-06-25T04:37:22.711Z,12.61
2018-06-25T04:38:22.700Z,12.58
2018-06-25T04:39:22.700Z,12.69
2018-06-25T04:40:22.847Z,12.56
2018-06-25T04:41:22.667Z,12.54
2018-06-25T04:42:22.659Z,12.58
2018-06-25T04:43:22.663Z,12.55
2018-06-25T04:44:22.645Z,12.66
2018-06-25T04:45:22.623Z,12.63
2018-06-25T04:46:22.615Z,12.61
2018-06-25T04:47:22.600Z,12.62
2018-06-25T04:48:22.589Z,12.69
2018-06-25T04:49:22.591Z,12.66
2018-06-25T04:50:22.567Z,12.71
2018-06-25T04:51:22.555Z,12.67
2018-06-25T04:52:22.547Z,12.74
2018-06-25T04:53:22.533Z,12.84
2018-06-25T04:54:22.533Z,12.70
2018-06-25T04:55:22.515Z,12.79
2018-06-25T04:56:22.500Z,12.84
2018-06-25T04:57:22.490Z,12.84
2018-06-25T04:58:22.477Z,12.91
2018-06-25T04:59:22.480Z,12.94
2018-06-25T05:00:22.460Z,12.94
2018-06-25T05:01:22.454Z,13.03
2018-06-25T05:02:22.444Z,12.99
2018-06-25T05:03:22.427Z,13.04
2018-06-25T05:04:22.431Z,13.10
2018-06-25T05:05:22.402Z,13.12
2018-06-25T05:06:22.390Z,13.09
2018-06-25T05:07:22.381Z,13.17
2018-06-25T05:08:22.369Z,13.06
2018-06-25T05:09:22.368Z,13.16
2018-06-25T05:10:22.346Z,13.21
2018-06-25T05:11:22.338Z,13.17
2018-06-25T05:12:22.327Z,13.21
2018-06-25T05:13:22.315Z,13.27
2018-06-25T05:14:22.315Z,13.24
2018-06-25T05:15:22.321Z,13.28
2018-06-25T05:16:22.304Z,13.13
2018-06-25T05:17:22.270Z,13.24
2018-06-25T05:18:22.255Z,13.17
2018-06-25T05:19:22.261Z,13.17
2018-06-25T05:20:22.238Z,13.12
2018-06-25T05:21:22.224Z,13.25
2018-06-25T05:22:22.211Z,13.25
2018-06-25T05:23:22.204Z,13.25
2018-06-25T05:24:22.199Z,13.29
2018-06-25T05:25:22.179Z,13.25
2018-06-25T05:26:22.187Z,13.25
2018-06-25T05:27:22.159Z,13.28
2018-06-25T05:28:22.146Z,13.27
2018-06-25T05:29:22.147Z,13.27
2018-06-25T05:30:22.126Z,13.28
2018-06-25T05:31:22.113Z,13.27
2018-06-25T05:32:22.103Z,13.29
2018-06-25T05:33:22.091Z,13.27
2018-06-25T05:34:22.131Z,13.31
2018-06-25T05:35:22.069Z,13.39
2018-06-25T05:36:22.059Z,13.39
2018-06-25T05:37:22.046Z,13.36
2018-06-25T05:38:22.041Z,13.41
2018-06-25T05:39:22.025Z,13.41
2018-06-25T05:40:22.023Z,13.38
2018-06-25T05:41:22.004Z,13.46
2018-06-25T05:42:21.991Z,13.46
2018-06-25T05:43:21.979Z,13.51
2018-06-25T05:44:21.973Z,13.59
2018-06-25T05:45:21.971Z,13.61
2018-06-25T05:46:21.947Z,13.55
2018-06-25T05:47:21.956Z,13.61
2018-06-25T05:48:21.925Z,13.66
2018-06-25T05:49:21.913Z,13.68
2018-06-25T05:50:21.916Z,13.72
2018-06-25T05:51:21.892Z,13.73
2018-06-25T05:52:21.880Z,13.87
2018-06-25T05:53:21.870Z,13.91
2018-06-25T05:54:21.857Z,13.96
2018-06-25T05:55:21.868Z,13.84
2018-06-25T05:56:21.847Z,13.87
2018-06-25T05:57:21.826Z,13.79
2018-06-25T05:58:21.817Z,13.81
2018-06-25T05:59:21.807Z,13.86
2018-06-25T06:00:21.802Z,13.75
2018-06-25T06:01:21.782Z,13.69
2018-06-25T06:02:21.771Z,13.75
2018-06-25T06:03:21.762Z,13.71
2018-06-25T06:04:21.750Z,13.71
2018-06-25T06:05:21.747Z,13.69
2018-06-25T06:06:21.726Z,13.69
2018-06-25T06:07:21.713Z,13.71
2018-06-25T06:08:21.703Z,13.69
2018-06-25T06:09:21.692Z,13.72
2018-06-25T06:10:21.691Z,13.63
2018-06-25T06:11:21.679Z,13.72
2018-06-25T06:12:21.660Z,13.69
2018-06-25T06:13:21.647Z,13.61
2018-06-25T06:14:21.643Z,13.68
2018-06-25T06:15:21.636Z,13.71
2018-06-25T06:16:21.614Z,13.73
2018-06-25T06:17:21.621Z,13.69
2018-06-25T06:18:21.593Z,13.73
2018-06-25T06:19:21.583Z,13.66
2018-06-25T06:20:21.582Z,13.76
2018-06-25T06:21:21.570Z,13.83
2018-06-25T06:22:21.549Z,13.83
2018-06-25T06:23:21.539Z,13.71
2018-06-25T06:24:21.536Z,13.69
2018-06-25T06:25:21.528Z,13.63
2018-06-25T06:26:21.519Z,13.73
2018-06-25T06:27:21.493Z,13.57
2018-06-25T06:28:21.546Z,13.55
2018-06-25T06:29:21.475Z,13.65
2018-06-25T06:30:21.474Z,13.73
2018-06-25T06:31:21.451Z,13.75
2018-06-25T06:32:21.453Z,13.73
2018-06-25T06:33:21.426Z,13.87
2018-06-25T06:34:21.415Z,13.93
2018-06-25T06:35:21.438Z,13.98
2018-06-25T06:36:21.393Z,13.94
2018-06-25T06:37:21.383Z,14.01
2018-06-25T06:38:21.374Z,14.04
2018-06-25T06:39:21.363Z,14.06
2018-06-25T06:40:21.365Z,14.13
2018-06-25T06:41:21.337Z,14.12
2018-06-25T06:42:21.329Z,14.11
2018-06-25T06:43:21.317Z,14.09
2018-06-25T06:44:21.308Z,14.21
2018-06-25T06:45:21.306Z,14.13
2018-06-25T06:46:21.294Z,14.16
2018-06-25T06:47:21.281Z,14.19
2018-06-25T06:48:21.260Z,14.20
2018-06-25T06:49:21.251Z,14.23
2018-06-25T06:50:21.251Z,14.11
2018-06-25T06:51:21.229Z,14.17
2018-06-25T06:52:21.245Z,14.02
2018-06-25T06:53:21.206Z,14.06
2018-06-25T06:54:21.195Z,13.98
2018-06-25T06:55:21.194Z,14.13
2018-06-25T06:56:21.174Z,14.08
2018-06-25T06:57:21.161Z,14.01
2018-06-25T06:58:21.156Z,14.04
2018-06-25T06:59:21.139Z,14.06
2018-06-25T07:00:21.138Z,14.17
2018-06-25T07:01:21.117Z,14.12
2018-06-25T07:02:21.106Z,14.20
2018-06-25T07:03:21.095Z,14.27
2018-06-25T07:04:21.116Z,14.34
2018-06-25T07:05:21.092Z,14.27
2018-06-25T07:06:21.070Z,14.39
2018-06-25T07:07:21.056Z,14.39
2018-06-25T07:08:21.044Z,14.54
2018-06-25T07:09:21.035Z,14.60
2018-06-25T07:10:21.106Z,14.87
2018-06-25T07:11:21.017Z,14.83
2018-06-25T07:12:21.000Z,14.98
2018-06-25T07:13:21.002Z,15.05
2018-06-25T07:14:20.986Z,15.19
2018-06-25T07:15:20.989Z,15.44
2018-06-25T07:16:20.957Z,15.46
2018-06-25T07:17:20.945Z,15.55
2018-06-25T07:18:20.938Z,15.70
2018-06-25T07:19:20.928Z,15.74
2018-06-25T07:20:20.934Z,15.81
2018-06-25T07:21:20.904Z,15.91
2018-06-25T07:22:20.893Z,15.95
2018-06-25T07:23:20.881Z,16.01
2018-06-25T07:24:20.870Z,16.17
2018-06-25T07:25:20.870Z,17.02
2018-06-25T07:26:20.852Z,18.34
2018-06-25T07:27:20.837Z,19.06
2018-06-25T07:28:20.842Z,19.34
2018-06-25T07:29:20.815Z,19.07
2018-06-25T07:30:20.815Z,18.20
2018-06-25T07:31:20.794Z,17.80
2018-06-25T07:32:20.782Z,17.53
2018-06-25T07:33:20.771Z,17.15
2018-06-25T07:34:20.764Z,17.39
2018-06-25T07:35:20.766Z,17.43
2018-06-25T07:36:20.739Z,17.58
2018-06-25T07:37:20.726Z,17.55
2018-06-25T07:38:20.718Z,17.14
2018-06-25T07:39:20.706Z,17.15
2018-06-25T07:40:20.732Z,17.12
2018-06-25T07:41:20.677Z,17.02
2018-06-25T07:42:20.687Z,16.73
2018-06-25T07:43:20.658Z,16.34
2018-06-25T07:44:20.651Z,16.01
2018-06-25T07:45:20.640Z,15.98
2018-06-25T07:46:20.650Z,15.85
2018-06-25T07:47:20.755Z,15.81
2018-06-25T07:48:20.607Z,15.88
2018-06-25T07:49:20.592Z,15.89
2018-06-25T07:50:20.585Z,15.98
2018-06-25T07:51:20.625Z,16.13
2018-06-25T07:52:20.569Z,16.08
2018-06-25T07:53:20.582Z,16.03
2018-06-25T07:54:20.542Z,16.17
2018-06-25T07:55:20.529Z,16.16
2018-06-25T07:56:20.527Z,16.18
2018-06-25T07:57:20.510Z,16.33
2018-06-25T07:58:20.500Z,16.41
2018-06-25T07:59:20.566Z,16.42
2018-06-25T08:00:20.471Z,16.33
2018-06-25T08:01:20.475Z,16.37
2018-06-25T08:02:20.454Z,16.30
2018-06-25T08:03:20.437Z,16.32
2018-06-25T08:04:20.446Z,16.30
2018-06-25T08:05:20.419Z,16.26
2018-06-25T08:06:20.430Z,16.45
2018-06-25T08:07:20.398Z,16.42
2018-06-25T08:08:20.385Z,16.52
2018-06-25T08:09:20.375Z,16.37
2018-06-25T08:10:20.383Z,16.37
2018-06-25T08:11:20.368Z,16.45
2018-06-25T08:12:20.343Z,16.48
2018-06-25T08:13:20.330Z,16.37
2018-06-25T08:14:20.320Z,16.41
2018-06-25T08:15:20.308Z,16.44
2018-06-25T08:16:20.386Z,16.42
2018-06-25T08:17:20.284Z,16.42
2018-06-25T08:18:20.279Z,16.40
2018-06-25T08:19:20.264Z,16.41
2018-06-25T08:20:20.326Z,16.27
2018-06-25T08:21:20.261Z,16.30
2018-06-25T08:22:20.249Z,16.32
2018-06-25T08:23:20.279Z,16.37
2018-06-25T08:24:20.207Z,16.18
2018-06-25T08:25:20.195Z,16.13
2018-06-25T08:26:20.210Z,16.04
2018-06-25T08:27:20.178Z,15.93
2018-06-25T08:28:20.167Z,15.91
2018-06-25T08:29:20.152Z,15.92
2018-06-25T08:30:20.142Z,15.93
2018-06-25T08:31:20.150Z,15.93
2018-06-25T08:32:20.126Z,15.99
2018-06-25T08:33:20.110Z,16.03
2018-06-25T08:34:20.313Z,16.03
2018-06-25T08:35:20.089Z,16.01
2018-06-25T08:36:20.159Z,15.95
2018-06-25T08:37:20.066Z,16.29
2018-06-25T08:38:20.115Z,16.72
2018-06-25T08:39:20.044Z,18.05
2018-06-25T08:40:20.173Z,19.09
2018-06-25T08:41:20.100Z,20.85
2018-06-25T08:42:20.012Z,22.20
2018-06-25T08:43:20.054Z,22.38
2018-06-25T08:44:19.986Z,22.14
2018-06-25T08:45:19.979Z,21.09
2018-06-25T08:46:19.991Z,20.51
2018-06-25T08:47:19.960Z,19.85
2018-06-25T08:48:19.986Z,19.58
2018-06-25T08:49:19.931Z,19.58
2018-06-25T08:50:19.924Z,19.90
2018-06-25T08:51:19.925Z,20.00
2018-06-25T08:52:19.903Z,19.67
2018-06-25T08:53:19.890Z,19.82
2018-06-25T08:54:19.882Z,19.76
2018-06-25T08:55:19.870Z,21.26
2018-06-25T08:56:19.872Z,22.93
2018-06-25T08:57:19.847Z,22.97
2018-06-25T08:58:19.835Z,23.35
2018-06-25T08:59:19.826Z,24.15
2018-06-25T09:00:19.816Z,24.90
2018-06-25T09:01:19.816Z,24.16
2018-06-25T09:02:19.791Z,24.90
2018-06-25T09:03:19.903Z,24.46
2018-06-25T09:04:19.837Z,24.49
2018-06-25T09:05:19.872Z,24.48
2018-06-25T09:06:19.770Z,22.76
2018-06-25T09:07:19.746Z,23.68
2018-06-25T09:08:19.726Z,23.11
2018-06-25T09:09:19.718Z,23.00
2018-06-25T09:10:19.710Z,22.38
2018-06-25T09:11:19.703Z,21.99
2018-06-25T09:12:19.684Z,21.43
2018-06-25T09:13:19.670Z,20.51
2018-06-25T09:14:19.662Z,20.19
2018-06-25T09:15:19.807Z,19.58
2018-06-25T09:16:19.657Z,19.24
2018-06-25T09:17:19.626Z,18.78
2018-06-25T09:18:19.620Z,18.69
2018-06-25T09:19:19.603Z,18.47
2018-06-25T09:20:19.596Z,18.41
2018-06-25T09:21:19.648Z,18.64
2018-06-25T09:22:19.575Z,18.64
2018-06-25T09:23:19.564Z,18.93
2018-06-25T09:24:19.553Z,19.80
2018-06-25T09:25:19.542Z,20.63
2018-06-25T09:26:19.545Z,20.61
2018-06-25T09:27:19.517Z,20.22
2018-06-25T09:28:22.233Z,19.76
2018-06-25T09:29:20.144Z,19.32
2018-06-25T09:30:19.479Z,18.82
2018-06-25T09:31:19.479Z,18.62
2018-06-25T09:32:19.457Z,18.29
2018-06-25T09:33:19.447Z,18.02
2018-06-25T09:34:19.440Z,17.77
2018-06-25T09:35:19.501Z,17.94
2018-06-25T09:36:19.450Z,17.95
2018-06-25T09:37:19.411Z,17.96
2018-06-25T09:38:19.396Z,17.86
2018-06-25T09:39:19.383Z,17.74
2018-06-25T09:40:19.373Z,17.51
2018-06-25T09:41:19.817Z,17.51
2018-06-25T09:42:19.348Z,17.53
2018-06-25T09:43:19.343Z,17.58
2018-06-25T09:44:19.326Z,17.71
2018-06-25T09:45:19.315Z,17.83
2018-06-25T09:46:19.340Z,18.02
2018-06-25T09:47:19.296Z,18.02
2018-06-25T09:48:19.286Z,18.04
2018-06-25T09:49:19.273Z,18.13
2018-06-25T09:50:19.263Z,18.05
2018-06-25T09:51:19.250Z,18.39
2018-06-25T09:52:19.250Z,18.46
2018-06-25T09:53:19.227Z,18.38
2018-06-25T09:54:19.224Z,18.29
2018-06-25T09:55:19.206Z,18.25
2018-06-25T09:56:19.195Z,18.28
2018-06-25T09:57:19.195Z,18.28
2018-06-25T09:58:19.173Z,18.25
2018-06-25T09:59:19.163Z,18.42
2018-06-25T10:00:19.154Z,18.49
2018-06-25T10:01:19.141Z,18.59
2018-06-25T10:02:19.144Z,18.69
2018-06-25T10:03:19.118Z,18.83
2018-06-25T10:04:19.107Z,18.78
2018-06-25T10:05:19.121Z,18.76
2018-06-25T10:06:21.730Z,19.05
2018-06-25T10:07:19.202Z,19.09
2018-06-25T10:08:19.066Z,19.13
2018-06-25T10:09:19.055Z,19.07
2018-06-25T10:10:19.042Z,19.01
2018-06-25T10:11:19.030Z,18.97
2018-06-25T10:12:19.031Z,19.09
2018-06-25T10:13:19.016Z,18.99
2018-06-25T10:14:18.998Z,18.93
2018-06-25T10:15:18.988Z,18.99
2018-06-25T10:16:18.978Z,19.10
2018-06-25T10:17:18.980Z,19.23
2018-06-25T10:18:18.956Z,19.31
2018-06-25T10:19:18.960Z,19.28
2018-06-25T10:20:18.939Z,19.35
2018-06-25T10:21:18.932Z,19.40
2018-06-25T10:22:18.931Z,19.50
2018-06-25T10:23:18.902Z,19.47
2018-06-25T10:24:19.677Z,19.20
2018-06-25T10:25:19.680Z,18.99
2018-06-25T10:26:18.867Z,18.91
2018-06-25T10:27:18.881Z,18.91
2018-06-25T10:28:18.859Z,18.90
2018-06-25T10:29:18.835Z,19.06
2018-06-25T10:30:18.831Z,18.90
2018-06-25T10:31:18.821Z,19.12
2018-06-25T10:32:18.818Z,19.06
2018-06-25T10:33:18.794Z,19.20
2018-06-25T10:34:18.785Z,19.15
2018-06-25T10:35:18.770Z,18.94
2018-06-25T10:36:18.759Z,18.97
2018-06-25T10:37:18.768Z,18.91
2018-06-25T10:38:18.736Z,18.96
2018-06-25T10:39:18.728Z,19.01
2018-06-25T10:40:18.714Z,19.06
2018-06-25T10:41:18.702Z,19.07
2018-06-25T10:42:18.803Z,19.05
2018-06-25T10:43:18.686Z,18.96
2018-06-25T10:44:18.670Z,18.90
2018-06-25T10:45:18.660Z,18.89
2018-06-25T10:46:18.659Z,18.82
2018-06-25T10:47:18.648Z,18.50
2018-06-25T10:48:18.629Z,18.36
2018-06-25T10:49:18.622Z,18.38
2018-06-25T10:50:18.604Z,18.35
2018-06-25T10:51:18.595Z,18.35
2018-06-25T10:52:18.594Z,18.16
2018-06-25T10:53:18.572Z,18.14
2018-06-25T10:54:18.561Z,18.13
2018-06-25T10:55:18.558Z,18.13
2018-06-25T10:56:18.539Z,18.05
2018-06-25T10:57:18.539Z,17.96
2018-06-25T10:58:18.519Z,17.86
2018-06-25T10:59:18.512Z,17.94
2018-06-25T11:00:18.600Z,18.14
2018-06-25T11:01:18.486Z,18.36
2018-06-25T11:02:18.486Z,18.46
2018-06-25T11:03:18.462Z,18.54
2018-06-25T11:04:18.452Z,18.69
2018-06-25T11:05:18.443Z,18.74
2018-06-25T11:06:18.432Z,18.82
2018-06-25T11:07:18.608Z,18.78
2018-06-25T11:08:18.408Z,18.86
2018-06-25T11:09:18.397Z,18.82
2018-06-25T11:10:18.387Z,18.78
2018-06-25T11:11:18.376Z,18.69
2018-06-25T11:12:18.401Z,18.54
2018-06-25T11:13:18.407Z,18.38
2018-06-25T11:14:18.343Z,18.29
2018-06-25T11:15:18.355Z,18.16
2018-06-25T11:16:18.322Z,18.31
2018-06-25T11:17:18.326Z,18.36
2018-06-25T11:18:18.299Z,18.38
2018-06-25T11:19:18.295Z,18.50
2018-06-25T11:20:18.281Z,18.49
2018-06-25T11:21:18.279Z,18.46
2018-06-25T11:22:18.265Z,18.56
2018-06-25T11:23:18.244Z,18.46
2018-06-25T11:24:18.234Z,18.46
2018-06-25T11:25:18.226Z,18.36
2018-06-25T11:26:18.211Z,18.59
2018-06-25T11:27:18.332Z,18.50
2018-06-25T11:28:18.190Z,18.57
2018-06-25T11:29:18.179Z,18.41
2018-06-25T11:30:18.169Z,18.39
2018-06-25T11:31:18.157Z,18.32
2018-06-25T11:32:18.158Z,18.44
2018-06-25T11:33:18.135Z,18.42
2018-06-25T11:34:18.124Z,18.51
2018-06-25T11:35:18.120Z,18.51
2018-06-25T11:36:18.102Z,18.54
2018-06-25T11:37:18.103Z,18.38
2018-06-25T11:38:18.112Z,18.38
2018-06-25T11:39:18.070Z,18.29
2018-06-25T11:40:18.059Z,18.28
2018-06-25T11:41:18.048Z,18.16
2018-06-25T11:42:18.047Z,18.14
2018-06-25T11:43:18.026Z,18.14
2018-06-25T11:44:18.019Z,18.13
2018-06-25T11:45:18.008Z,18.14
2018-06-25T11:46:17.995Z,17.98
2018-06-25T11:47:17.995Z,17.92
2018-06-25T11:48:17.976Z,18.01
2018-06-25T11:49:17.961Z,18.11
2018-06-25T11:50:17.953Z,18.10
2018-06-25T11:51:17.950Z,18.14
2018-06-25T11:52:17.933Z,18.21
2018-06-25T11:53:18.710Z,18.36
2018-06-25T11:54:17.912Z,18.42
2018-06-25T11:55:17.896Z,18.38
2018-06-25T11:56:17.883Z,18.42
2018-06-25T11:57:17.882Z,18.36
2018-06-25T11:58:17.874Z,18.39
2018-06-25T11:59:17.852Z,18.39
2018-06-25T12:00:17.863Z,18.41
2018-06-25T12:01:17.836Z,18.51
2018-06-25T12:02:17.819Z,18.53
2018-06-25T12:03:18.051Z,18.59
2018-06-25T12:04:17.822Z,18.74
2018-06-25T12:05:17.817Z,18.69
2018-06-25T12:06:17.776Z,18.68
2018-06-25T12:07:17.764Z,18.60
2018-06-25T12:08:17.762Z,18.72
2018-06-25T12:09:17.741Z,18.84
2018-06-25T12:10:17.737Z,19.02
2018-06-25T12:11:17.720Z,19.06
2018-06-25T12:12:17.745Z,19.20
2018-06-25T12:13:17.711Z,19.31
2018-06-25T12:14:17.687Z,19.40
2018-06-25T12:15:17.685Z,19.39
2018-06-25T12:16:18.240Z,19.47
2018-06-25T12:17:17.654Z,19.58
2018-06-25T12:18:17.655Z,19.64
2018-06-25T12:19:17.645Z,19.58
2018-06-25T12:20:17.625Z,19.52
2018-06-25T12:21:17.611Z,19.46
2018-06-25T12:22:17.603Z,19.40
2018-06-25T12:23:17.608Z,19.32
2018-06-25T12:24:17.579Z,19.31
2018-06-25T12:25:17.566Z,19.23
2018-06-25T12:26:17.560Z,19.16
2018-06-25T12:27:17.544Z,19.30
2018-06-25T12:28:17.547Z,19.39
2018-06-25T12:29:17.522Z,19.40
2018-06-25T12:30:17.514Z,19.52
2018-06-25T12:31:17.506Z,19.58
2018-06-25T12:32:17.492Z,19.64
2018-06-25T12:33:17.492Z,19.75
2018-06-25T12:34:17.471Z,19.97
2018-06-25T12:35:17.457Z,20.13
2018-06-25T12:36:17.447Z,20.19
2018-06-25T12:37:17.439Z,20.23
2018-06-25T12:38:17.438Z,20.23
2018-06-25T12:39:17.420Z,20.37
2018-06-25T12:40:17.403Z,20.54
2018-06-25T12:41:17.398Z,20.46
2018-06-25T12:42:17.386Z,20.51
2018-06-25T12:43:17.386Z,20.58
2018-06-25T12:44:17.359Z,20.51
2018-06-25T12:45:17.354Z,20.23
2018-06-25T12:46:17.344Z,20.15
2018-06-25T12:47:17.328Z,20.26
2018-06-25T12:48:17.350Z,20.35
2018-06-25T12:49:17.312Z,20.37
2018-06-25T12:50:17.295Z,20.33
2018-06-25T12:51:17.286Z,20.17
2018-06-25T12:52:17.278Z,20.05